Time;durP1;ratioP1;P1;durP2;ratioP2;P2;SDS_P1;SDS_P2;PMS_P1;PMS_P2;Temp;Humidity;BMP_temperature;BMP_pressure;BME280_temperature;BME280_humidity;BME280_pressure;Samples;Min_cycle;Max_cycle;Signal;HPM_P1;HPM_P2
2022/10/18 00:01:10;;;;;;;32.70;13.63;;;;;;;;;;6327170;22;20169;-91
2022/10/18 00:04:19;;;;;;;57.10;22.13;;;;;;;;;;6325937;22;20180;-93
2022/10/18 00:07:24;;;;;;;31.90;12.70;;;;;;;;;;6326507;22;20177;-93
2022/10/18 00:10:30;;;;;;;36.40;13.05;;;;;;;;;;6327641;22;20177;-92
2022/10/18 00:13:36;;;;;;;100.93;14.95;;;;;;;;;;6326434;22;20180;-91
2022/10/18 00:16:41;;;;;;;33.67;13.23;;;;;;;;;;6325566;22;20161;-92
2022/10/18 00:19:49;;;;;;;36.85;13.27;;;;;;;;;;6326361;22;20153;-94
2022/10/18 00:22:55;;;;;;;37.92;13.40;;;;;;;;;;6324634;22;20195;-92
2022/10/18 00:26:10;;;;;;;33.50;13.20;;;;;;;;;;6330462;22;20165;-94
2022/10/18 00:29:17;;;;;;;45.97;13.48;;;;;;;;;;6325549;22;20158;-93
2022/10/18 00:32:22;;;;;;;109.55;14.43;;;;;;;;;;6325558;22;20180;-92
2022/10/18 00:35:29;;;;;;;42.58;13.15;;;;;;;;;;6324893;22;20685;-94
2022/10/18 00:38:35;;;;;;;89.97;13.13;;;;;;;;;;6327934;22;20152;-94
2022/10/18 00:41:41;;;;;;;101.80;12.55;;;;;;;;;;6325135;22;20202;-91
2022/10/18 00:45:04;;;;;;;61.95;12.15;;;;;;;;;;6324607;22;20715;-92
2022/10/18 00:48:09;;;;;;;37.88;12.63;;;;;;;;;;6324289;22;20207;-93
2022/10/18 00:51:18;;;;;;;38.85;11.50;;;;;;;;;;6323122;22;20173;-90
2022/10/18 00:54:24;;;;;;;45.97;11.55;;;;;;;;;;6325180;22;20236;-92
2022/10/18 00:57:29;;;;;;;27.58;11.60;;;;;;;;;;6323737;22;20283;-93
2022/10/18 01:00:38;;;;;;;33.95;11.43;;;;;;;;;;6327035;22;20165;-92
2022/10/18 01:03:43;;;;;;;57.88;12.73;;;;;;;;;;6322345;22;20224;-93
2022/10/18 01:06:54;;;;;;;29.40;12.45;;;;;;;;;;6322153;22;20160;-94
2022/10/18 01:10:02;;;;;;;35.78;14.32;;;;;;;;;;6323755;22;20152;-93
2022/10/18 01:13:20;;;;;;;44.50;12.75;;;;;;;;;;6323604;22;20266;-94
2022/10/18 01:16:37;;;;;;;55.33;13.18;;;;;;;;;;6324988;22;20245;-92
2022/10/18 01:20:00;;;;;;;35.03;11.48;;;;;;;;;;6326091;22;20213;-93
2022/10/18 01:23:10;;;;;;;42.03;12.43;;;;;;;;;;6325578;22;20164;-93
2022/10/18 01:26:22;;;;;;;68.05;13.18;;;;;;;;;;6327015;22;20168;-92
2022/10/18 01:29:33;;;;;;;45.85;13.05;;;;;;;;;;6326779;22;20173;-92
2022/10/18 01:32:46;;;;;;;51.08;12.85;;;;;;;;;;6328819;22;20188;-93
2022/10/18 01:35:55;;;;;;;71.63;13.10;;;;;;;;;;6328450;22;20166;-93
2022/10/18 01:39:04;;;;;;;36.65;12.02;;;;;;;;;;6327156;22;20165;-93
2022/10/18 01:42:11;;;;;;;42.50;11.60;;;;;;;;;;6328298;22;20161;-92
2022/10/18 01:45:18;;;;;;;47.55;11.60;;;;;;;;;;6327424;22;20169;-91
2022/10/18 01:48:25;;;;;;;31.15;11.98;;;;;;;;;;6327866;22;20184;-93
2022/10/18 01:51:31;;;;;;;31.50;11.38;;;;;;;;;;6327506;22;20173;-91
2022/10/18 01:54:38;;;;;;;46.15;11.52;;;;;;;;;;6326792;22;20193;-93
2022/10/18 01:57:47;;;;;;;32.70;11.52;;;;;;;;;;6325697;22;20149;-92
2022/10/18 02:00:59;;;;;;;42.25;11.93;;;;;;;;;;6325104;22;20164;-92
2022/10/18 02:04:12;;;;;;;31.25;10.93;;;;;;;;;;6326648;22;20492;-93
2022/10/18 02:07:24;;;;;;;21.67;9.90;;;;;;;;;;6327854;22;20149;-91
2022/10/18 02:10:32;;;;;;;35.40;10.63;;;;;;;;;;6328838;22;20172;-91
2022/10/18 02:13:41;;;;;;;20.60;10.20;;;;;;;;;;6327506;22;20236;-93
2022/10/18 02:16:49;;;;;;;32.00;9.65;;;;;;;;;;6328193;22;20276;-93
2022/10/18 02:19:57;;;;;;;32.60;10.57;;;;;;;;;;6325134;22;20208;-92
2022/10/18 02:23:04;;;;;;;25.27;10.23;;;;;;;;;;6326129;22;20180;-91
2022/10/18 02:26:09;;;;;;;33.85;10.15;;;;;;;;;;6326094;22;20161;-93
2022/10/18 02:29:14;;;;;;;18.92;10.23;;;;;;;;;;6325770;22;20165;-94
2022/10/18 02:32:22;;;;;;;29.48;9.40;;;;;;;;;;6327522;22;20169;-93
2022/10/18 02:35:30;;;;;;;28.55;9.63;;;;;;;;;;6326031;22;20252;-94
2022/10/18 02:38:36;;;;;;;34.83;9.15;;;;;;;;;;6327000;22;20180;-93
2022/10/18 02:41:41;;;;;;;25.30;9.93;;;;;;;;;;6326333;22;20169;-91
2022/10/18 02:44:47;;;;;;;53.55;9.88;;;;;;;;;;6324713;22;20230;-92
2022/10/18 02:47:53;;;;;;;41.58;10.20;;;;;;;;;;6324960;22;20709;-92
2022/10/18 02:51:00;;;;;;;45.95;10.27;;;;;;;;;;6324479;22;20212;-92
2022/10/18 02:54:07;;;;;;;26.08;10.13;;;;;;;;;;6324582;22;20662;-93
2022/10/18 02:57:12;;;;;;;23.17;11.27;;;;;;;;;;6324240;22;20173;-92
2022/10/18 03:00:17;;;;;;;32.70;10.32;;;;;;;;;;6326142;22;20161;-93
2022/10/18 03:03:22;;;;;;;44.30;11.20;;;;;;;;;;6326545;22;20663;-91
2022/10/18 03:06:30;;;;;;;22.65;9.63;;;;;;;;;;6326642;22;20168;-94
2022/10/18 03:09:35;;;;;;;67.60;10.55;;;;;;;;;;6324312;22;20169;-92
2022/10/18 03:12:40;;;;;;;19.65;9.20;;;;;;;;;;6325966;22;20176;-93
2022/10/18 03:15:46;;;;;;;33.83;9.32;;;;;;;;;;6323553;22;20169;-93
2022/10/18 03:18:52;;;;;;;29.52;9.63;;;;;;;;;;6325679;22;20144;-92
2022/10/18 03:21:59;;;;;;;24.55;10.25;;;;;;;;;;6325328;22;20145;-92
2022/10/18 03:25:05;;;;;;;31.85;9.68;;;;;;;;;;6326635;22;20153;-93
2022/10/18 03:28:10;;;;;;;58.53;10.38;;;;;;;;;;6325640;22;20211;-93
2022/10/18 03:31:16;;;;;;;42.80;10.02;;;;;;;;;;6325761;22;20237;-93
2022/10/18 03:34:22;;;;;;;33.58;11.57;;;;;;;;;;6324900;22;20192;-90
2022/10/18 03:37:29;;;;;;;31.75;10.32;;;;;;;;;;6325553;22;20257;-92
2022/10/18 03:40:35;;;;;;;80.00;11.18;;;;;;;;;;6324046;22;20207;-90
2022/10/18 03:43:41;;;;;;;33.47;9.68;;;;;;;;;;6322670;22;20216;-93
2022/10/18 03:46:46;;;;;;;88.93;10.27;;;;;;;;;;6325945;22;20167;-93
2022/10/18 03:49:51;;;;;;;75.75;10.02;;;;;;;;;;6325560;22;20166;-91
2022/10/18 03:52:59;;;;;;;27.65;9.70;;;;;;;;;;6324725;22;20165;-93
2022/10/18 03:56:05;;;;;;;24.38;8.68;;;;;;;;;;6326324;22;20172;-94
2022/10/18 03:59:11;;;;;;;58.80;10.60;;;;;;;;;;6324523;22;20203;-92
2022/10/18 04:02:19;;;;;;;68.55;11.48;;;;;;;;;;6324383;22;20192;-92
2022/10/18 04:05:26;;;;;;;37.50;10.38;;;;;;;;;;6324588;22;20219;-92
2022/10/18 04:08:33;;;;;;;28.17;9.60;;;;;;;;;;6324200;22;20169;-92
2022/10/18 04:11:39;;;;;;;35.95;9.32;;;;;;;;;;6323871;22;20166;-93
2022/10/18 04:14:44;;;;;;;18.45;8.93;;;;;;;;;;6322685;22;20196;-94
2022/10/18 04:17:50;;;;;;;27.90;10.80;;;;;;;;;;6320859;22;20165;-93
2022/10/18 04:20:55;;;;;;;31.65;9.43;;;;;;;;;;6320182;22;20176;-92
2022/10/18 04:24:02;;;;;;;22.33;9.25;;;;;;;;;;6319783;22;20199;-92
2022/10/18 04:27:08;;;;;;;46.33;9.73;;;;;;;;;;6318343;22;20168;-93
2022/10/18 04:30:13;;;;;;;32.80;9.43;;;;;;;;;;6321162;22;20169;-92
2022/10/18 04:33:19;;;;;;;24.13;9.50;;;;;;;;;;6321086;22;20180;-92
2022/10/18 04:36:23;;;;;;;27.10;9.30;;;;;;;;;;6320230;22;20189;-92
2022/10/18 04:39:30;;;;;;;25.75;8.80;;;;;;;;;;6320308;22;20168;-92
2022/10/18 04:42:35;;;;;;;17.23;8.50;;;;;;;;;;6319435;22;20177;-93
2022/10/18 04:45:40;;;;;;;46.33;8.85;;;;;;;;;;6321405;22;20180;-92
2022/10/18 04:48:45;;;;;;;30.55;9.27;;;;;;;;;;6321092;22;20262;-93
2022/10/18 04:51:51;;;;;;;70.00;10.40;;;;;;;;;;6321785;22;20232;-92
2022/10/18 04:58:42;;;;;;;33.85;9.32;;;;;;;;;;6323345;22;20180;-91
2022/10/18 05:01:48;;;;;;;26.10;9.18;;;;;;;;;;6324707;22;20149;-91
2022/10/18 05:08:14;;;;;;;29.70;8.20;;;;;;;;;;6328301;22;20153;-91
2022/10/18 05:11:25;;;;;;;40.28;8.25;;;;;;;;;;6326507;22;20164;-91
2022/10/18 05:14:32;;;;;;;54.33;9.07;;;;;;;;;;6326953;22;20188;-91
2022/10/18 05:17:45;;;;;;;72.32;9.63;;;;;;;;;;6325969;22;20169;-91
2022/10/18 05:20:51;;;;;;;25.13;8.27;;;;;;;;;;6325460;22;20682;-94
2022/10/18 05:34:17;;;;;;;49.83;7.93;;;;;;;;;;6325924;22;20216;-94
2022/10/18 05:40:57;;;;;;;29.70;8.60;;;;;;;;;;6328395;22;20206;-94
2022/10/18 05:47:27;;;;;;;40.47;9.30;;;;;;;;;;6327381;22;20261;-94
2022/10/18 05:50:39;;;;;;;25.92;8.85;;;;;;;;;;6327789;22;20199;-94
2022/10/18 05:53:46;;;;;;;56.67;10.02;;;;;;;;;;6325587;22;20615;-92
2022/10/18 05:57:01;;;;;;;38.08;8.32;;;;;;;;;;6327772;22;20169;-92
2022/10/18 06:00:09;;;;;;;28.83;8.82;;;;;;;;;;6326424;22;20166;-93
2022/10/18 06:03:17;;;;;;;24.77;8.73;;;;;;;;;;6328423;22;20169;-93
2022/10/18 06:09:57;;;;;;;22.55;8.25;;;;;;;;;;6325759;22;20249;-94
2022/10/18 06:13:08;;;;;;;32.35;8.35;;;;;;;;;;6333991;22;20184;-93
2022/10/18 06:16:17;;;;;;;26.23;8.98;;;;;;;;;;6330216;22;20177;-93
2022/10/18 06:19:24;;;;;;;22.45;8.90;;;;;;;;;;6327021;22;20164;-92
2022/10/18 06:22:30;;;;;;;30.10;9.02;;;;;;;;;;6327784;22;20169;-92
2022/10/18 06:25:57;;;;;;;69.82;9.02;;;;;;;;;;6326928;22;20239;-93
2022/10/18 06:29:04;;;;;;;30.40;8.98;;;;;;;;;;6325448;22;20498;-93
2022/10/18 06:32:12;;;;;;;20.75;9.80;;;;;;;;;;6329020;22;20184;-91
2022/10/18 06:35:20;;;;;;;23.42;8.32;;;;;;;;;;6329391;22;20219;-93
2022/10/18 06:38:29;;;;;;;23.50;7.82;;;;;;;;;;6325537;22;20299;-92
2022/10/18 06:41:38;;;;;;;24.63;8.40;;;;;;;;;;6325793;22;20165;-91
2022/10/18 06:45:02;;;;;;;18.48;8.43;;;;;;;;;;6326000;22;20149;-93
2022/10/18 06:48:08;;;;;;;31.95;7.97;;;;;;;;;;6326482;22;20184;-94
2022/10/18 06:51:14;;;;;;;26.50;7.50;;;;;;;;;;6327449;22;20169;-94
2022/10/18 06:54:19;;;;;;;29.40;8.55;;;;;;;;;;6327530;22;20189;-93
2022/10/18 06:57:25;;;;;;;24.83;9.25;;;;;;;;;;6329195;22;20164;-94
2022/10/18 07:00:33;;;;;;;44.65;9.45;;;;;;;;;;6325386;22;20165;-94
2022/10/18 07:03:52;;;;;;;23.17;8.25;;;;;;;;;;6325277;22;20192;-94
2022/10/18 07:07:00;;;;;;;29.33;9.68;;;;;;;;;;6324571;22;20208;-93
2022/10/18 07:10:19;;;;;;;26.23;9.65;;;;;;;;;;6325274;22;20172;-93
